Time;durP1;ratioP1;P1;durP2;ratioP2;P2;SDS_P1;SDS_P2;PMS_P1;PMS_P2;Temp;Humidity;BMP_temperature;BMP_pressure;BME280_temperature;BME280_humidity;BME280_pressure;Samples;Min_cycle;Max_cycle;Signal;HPM_P1;HPM_P2
2024/03/08 00:00:43;;;;;;;20.75;13.35;;;1.70;99.90;;;;;;4977174;28;20055;-70
2024/03/08 00:03:10;;;;;;;30.40;17.73;;;1.60;99.90;;;;;;4976668;28;20082;-69
2024/03/08 00:05:38;;;;;;;27.98;15.05;;;1.70;99.90;;;;;;4991543;28;20051;-70
2024/03/08 00:08:09;;;;;;;33.03;17.52;;;1.70;99.90;;;;;;4976521;28;20113;-70
2024/03/08 00:10:38;;;;;;;;;;;1.70;99.90;;;;;;4976020;28;20057;-70
2024/03/08 00:13:06;;;;;;;25.10;15.40;;;1.70;99.90;;;;;;4991632;28;20467;-70
2024/03/08 00:15:34;;;;;;;29.85;17.70;;;1.60;99.90;;;;;;4976776;28;20130;-69
2024/03/08 00:18:01;;;;;;;27.20;15.13;;;1.60;99.90;;;;;;4976555;28;20062;-70
2024/03/08 00:20:29;;;;;;;28.35;17.05;;;1.70;99.90;;;;;;4991370;28;20051;-70
2024/03/08 00:22:57;;;;;;;28.02;16.23;;;1.70;99.90;;;;;;4975285;28;20047;-69
2024/03/08 00:25:25;;;;;;;27.52;15.77;;;1.70;99.90;;;;;;4976167;28;20543;-69
2024/03/08 00:27:55;;;;;;;20.33;11.70;;;1.70;99.90;;;;;;4991395;28;20097;-70
2024/03/08 00:30:25;;;;;;;29.08;15.32;;;1.70;99.90;;;;;;4975052;28;20039;-70
2024/03/08 00:32:52;;;;;;;29.55;15.77;;;1.70;99.90;;;;;;4991587;28;20042;-70
2024/03/08 00:35:19;;;;;;;24.80;15.18;;;1.70;99.90;;;;;;4990828;28;20074;-70
2024/03/08 00:37:48;;;;;;;23.45;17.45;;;1.70;99.90;;;;;;4974957;28;20472;-70
2024/03/08 00:40:16;;;;;;;27.25;16.80;;;1.70;99.90;;;;;;4990822;28;20477;-69
2024/03/08 00:42:43;;;;;;;29.88;17.33;;;1.70;99.90;;;;;;4990990;28;20073;-70
2024/03/08 00:45:11;;;;;;;25.42;14.13;;;1.60;99.90;;;;;;4991054;28;20039;-69
2024/03/08 00:47:38;;;;;;;31.42;17.55;;;1.60;99.90;;;;;;4976297;28;20049;-70
2024/03/08 00:50:08;;;;;;;30.48;17.77;;;1.60;99.90;;;;;;4990887;28;20043;-70
2024/03/08 00:52:35;;;;;;;27.08;16.42;;;1.60;99.90;;;;;;4975803;28;20047;-70
2024/03/08 00:55:02;;;;;;;30.15;16.95;;;1.60;99.90;;;;;;4990779;28;20500;-70
2024/03/08 00:57:29;;;;;;;35.80;21.13;;;1.60;99.90;;;;;;4990538;28;20419;-70
2024/03/08 00:59:56;;;;;;;31.42;17.63;;;1.50;99.90;;;;;;4976040;28;20070;-70
2024/03/08 01:02:23;;;;;;;34.95;19.75;;;1.50;99.90;;;;;;4990617;28;20047;-71
2024/03/08 01:04:51;;;;;;;34.72;19.63;;;1.40;99.90;;;;;;4990888;28;20090;-70
2024/03/08 01:07:18;;;;;;;34.25;18.60;;;1.40;99.90;;;;;;4989044;28;20047;-70
2024/03/08 01:09:45;;;;;;;31.40;18.30;;;1.40;99.90;;;;;;4974462;28;20047;-70
2024/03/08 01:12:12;;;;;;;36.05;19.10;;;1.40;99.90;;;;;;4975628;28;20047;-70
2024/03/08 01:14:39;;;;;;;38.10;20.40;;;1.40;99.90;;;;;;4990205;28;20039;-70
2024/03/08 01:17:06;;;;;;;33.05;17.40;;;1.40;99.90;;;;;;4990423;28;20053;-70
2024/03/08 01:19:33;;;;;;;35.90;19.10;;;1.40;99.90;;;;;;4973978;28;20102;-70
2024/03/08 01:22:00;;;;;;;36.55;17.95;;;1.40;99.90;;;;;;4990296;28;20062;-70
2024/03/08 01:24:27;;;;;;;28.65;17.25;;;1.40;99.90;;;;;;4990011;28;20050;-70
2024/03/08 01:26:54;;;;;;;28.13;17.23;;;1.40;99.90;;;;;;4975509;28;20448;-69
2024/03/08 01:29:21;;;;;;;28.45;16.67;;;1.50;99.90;;;;;;4990063;28;20520;-70
2024/03/08 01:31:48;;;;;;;33.03;17.30;;;1.30;99.90;;;;;;4974249;28;20042;-70
2024/03/08 01:34:15;;;;;;;32.60;19.00;;;1.30;99.90;;;;;;4990041;28;20042;-70
2024/03/08 01:36:42;;;;;;;35.75;20.05;;;1.20;99.90;;;;;;4974043;28;20097;-69
2024/03/08 01:39:09;;;;;;;30.67;16.92;;;1.20;99.90;;;;;;4973889;28;20085;-70
2024/03/08 01:41:37;;;;;;;29.92;15.55;;;1.20;99.90;;;;;;4973705;28;20077;-71
2024/03/08 01:44:07;;;;;;;35.20;24.75;;;1.20;99.90;;;;;;4989970;28;20407;-70
2024/03/08 01:46:35;;;;;;;36.33;19.05;;;1.20;99.90;;;;;;4973558;28;20039;-70
2024/03/08 01:49:02;;;;;;;28.10;18.55;;;1.20;99.90;;;;;;4974957;28;20050;-70
2024/03/08 01:51:30;;;;;;;32.13;19.92;;;1.20;99.90;;;;;;4989620;28;20043;-70
2024/03/08 01:54:00;;;;;;;28.08;15.75;;;1.20;99.90;;;;;;4973661;28;20043;-70
2024/03/08 01:56:28;;;;;;;22.17;14.98;;;1.20;99.90;;;;;;4974512;28;20524;-70
2024/03/08 01:58:55;;;;;;;30.15;17.67;;;1.20;99.90;;;;;;4973508;28;20086;-70
2024/03/08 02:01:23;;;;;;;26.75;16.67;;;1.20;99.90;;;;;;4974466;28;20061;-70
2024/03/08 02:03:50;;;;;;;34.92;17.83;;;1.20;99.90;;;;;;4973483;28;20061;-70
2024/03/08 02:06:18;;;;;;;35.17;17.95;;;1.10;99.90;;;;;;4973427;28;20043;-70
2024/03/08 02:08:46;;;;;;;27.35;17.98;;;1.20;99.90;;;;;;4989201;28;20043;-70
2024/03/08 02:11:14;;;;;;;32.35;16.20;;;1.20;99.90;;;;;;4989133;28;20138;-70
2024/03/08 02:13:41;;;;;;;30.73;17.85;;;1.20;99.90;;;;;;4989133;28;20051;-70
2024/03/08 02:16:09;;;;;;;31.80;18.65;;;1.20;99.90;;;;;;4973199;28;20050;-70
2024/03/08 02:18:36;;;;;;;25.65;17.75;;;1.20;99.90;;;;;;4972617;28;20046;-70
2024/03/08 02:21:05;;;;;;;28.83;16.75;;;1.10;99.90;;;;;;4974446;28;20074;-69
2024/03/08 02:23:33;;;;;;;30.15;19.17;;;1.10;99.90;;;;;;4988923;28;20057;-70
2024/03/08 02:26:01;;;;;;;34.85;19.70;;;1.20;99.90;;;;;;4974251;28;20053;-70
2024/03/08 02:28:31;;;;;;;27.73;18.23;;;1.10;99.90;;;;;;4989012;28;20034;-70
2024/03/08 02:30:57;;;;;;;32.90;17.95;;;1.10;99.90;;;;;;4973409;28;20043;-70
2024/03/08 02:33:26;;;;;;;35.80;23.88;;;1.10;99.90;;;;;;4974120;28;20400;-70
2024/03/08 02:35:54;;;;;;;32.90;18.08;;;1.10;99.90;;;;;;4974039;28;20546;-70
2024/03/08 02:38:24;;;;;;;22.60;13.13;;;1.00;99.90;;;;;;4972938;28;20039;-70
2024/03/08 02:40:53;;;;;;;31.38;18.58;;;1.00;99.90;;;;;;4988538;28;20058;-70
2024/03/08 02:43:24;;;;;;;30.33;17.02;;;1.00;99.90;;;;;;4989102;28;20043;-70
2024/03/08 02:45:54;;;;;;;27.20;16.13;;;1.00;99.90;;;;;;4973634;28;20034;-70
2024/03/08 02:48:21;;;;;;;32.72;20.58;;;1.00;99.90;;;;;;4988793;28;20412;-70
2024/03/08 02:50:50;;;;;;;34.58;17.70;;;1.00;99.90;;;;;;4973642;28;20093;-70
2024/03/08 02:53:18;;;;;;;20.33;12.93;;;1.00;99.90;;;;;;4974064;28;20049;-70
2024/03/08 02:55:46;;;;;;;28.45;15.45;;;1.00;99.90;;;;;;4988532;28;20046;-70
2024/03/08 02:58:14;;;;;;;24.67;15.60;;;1.00;99.90;;;;;;4988643;28;20141;-71
2024/03/08 03:00:44;;;;;;;34.13;20.10;;;0.90;99.90;;;;;;4972474;28;20058;-70
2024/03/08 03:03:11;;;;;;;32.65;18.05;;;1.00;99.90;;;;;;4973803;28;20085;-70
2024/03/08 03:05:41;;;;;;;28.92;18.92;;;0.90;99.90;;;;;;4988506;28;20082;-70
2024/03/08 03:08:11;;;;;;;23.77;15.73;;;0.90;99.90;;;;;;4973698;28;20042;-70
2024/03/08 03:10:38;;;;;;;23.90;14.55;;;0.90;99.90;;;;;;4972084;28;20518;-70
2024/03/08 03:13:06;;;;;;;25.55;15.75;;;0.90;99.90;;;;;;4988496;28;20063;-70
2024/03/08 03:15:33;;;;;;;32.25;18.75;;;0.90;99.90;;;;;;4973781;28;20101;-70
2024/03/08 03:18:01;;;;;;;37.95;19.20;;;0.90;99.90;;;;;;5004604;28;20074;-70
2024/03/08 03:20:39;;;;;;;18.38;10.63;;;0.90;99.90;;;;;;4988529;28;20047;-70
2024/03/08 03:23:08;;;;;;;29.48;17.58;;;0.90;99.90;;;;;;4973540;28;20543;-70
2024/03/08 03:25:35;;;;;;;29.77;16.60;;;0.90;99.90;;;;;;4973225;28;20042;-69
2024/03/08 03:28:04;;;;;;;29.48;17.98;;;0.90;99.90;;;;;;4988358;28;20042;-71
2024/03/08 03:30:34;;;;;;;27.67;15.93;;;0.90;99.90;;;;;;4973563;28;20089;-70
2024/03/08 03:33:01;;;;;;;28.02;17.83;;;0.90;99.90;;;;;;4960629;28;20039;-70
2024/03/08 03:35:29;;;;;;;21.17;13.02;;;0.90;99.90;;;;;;4991140;28;20053;-70
2024/03/08 03:38:06;;;;;;;27.42;15.43;;;0.90;99.90;;;;;;4991755;28;20316;-70
2024/03/08 03:40:35;;;;;;;27.58;17.30;;;0.90;99.90;;;;;;5005002;28;20500;-70
2024/03/08 03:43:03;;;;;;;28.63;17.30;;;0.90;99.90;;;;;;4976981;28;20054;-70
2024/03/08 03:45:34;;;;;;;26.20;16.85;;;0.90;99.90;;;;;;4991580;28;20055;-70
2024/03/08 03:48:03;;;;;;;31.35;21.45;;;0.90;99.90;;;;;;4975369;28;20448;-70
2024/03/08 03:50:30;;;;;;;33.25;17.05;;;0.90;99.90;;;;;;4991837;28;20049;-71
2024/03/08 03:52:57;;;;;;;26.50;16.92;;;0.80;99.90;;;;;;4976807;28;20125;-70
2024/03/08 03:55:25;;;;;;;32.63;17.85;;;0.90;99.90;;;;;;4977201;28;20109;-70
2024/03/08 03:57:52;;;;;;;20.65;14.90;;;0.90;99.90;;;;;;4977047;28;20038;-70
2024/03/08 04:00:19;;;;;;;19.63;11.20;;;0.80;99.90;;;;;;4975732;28;20043;-70
2024/03/08 04:02:51;;;;;;;20.05;16.10;;;0.80;99.90;;;;;;5007543;28;20460;-70
2024/03/08 04:05:18;;;;;;;25.10;17.88;;;0.80;99.90;;;;;;4974692;28;20047;-71
2024/03/08 04:07:45;;;;;;;29.42;17.17;;;0.80;99.90;;;;;;4976599;28;20089;-70
2024/03/08 04:10:12;;;;;;;27.63;14.35;;;0.80;99.90;;;;;;4991652;28;20555;-70
2024/03/08 04:12:39;;;;;;;22.42;12.95;;;0.80;99.90;;;;;;4991697;28;20504;-70
2024/03/08 04:15:07;;;;;;;19.85;15.18;;;0.80;99.90;;;;;;4975417;28;20423;-70
2024/03/08 04:17:37;;;;;;;24.58;16.73;;;0.80;99.90;;;;;;4975749;28;20127;-70
2024/03/08 04:20:09;;;;;;;24.45;15.38;;;0.80;99.90;;;;;;4976447;28;20643;-70
2024/03/08 04:22:37;;;;;;;27.20;15.02;;;0.80;99.90;;;;;;4976335;28;20051;-70
2024/03/08 04:25:05;;;;;;;19.85;13.65;;;0.80;99.90;;;;;;4976378;28;20081;-70
2024/03/08 04:27:35;;;;;;;26.38;15.98;;;0.80;99.90;;;;;;4976423;28;20038;-70
2024/03/08 04:30:03;;;;;;;30.63;16.48;;;0.80;99.90;;;;;;4991128;28;20090;-70
2024/03/08 04:32:32;;;;;;;29.38;17.10;;;0.80;99.90;;;;;;4976373;28;20034;-71
2024/03/08 04:35:03;;;;;;;14.48;8.35;;;0.80;99.90;;;;;;4974957;28;20039;-71
2024/03/08 04:37:30;;;;;;;21.17;13.20;;;0.80;99.90;;;;;;4991489;28;20042;-70
2024/03/08 04:39:58;;;;;;;24.15;14.77;;;0.70;99.90;;;;;;4990825;28;20141;-70
2024/03/08 04:42:28;;;;;;;26.52;15.80;;;0.70;99.90;;;;;;4976013;28;20049;-70
2024/03/08 04:44:55;;;;;;;21.60;12.63;;;0.70;99.90;;;;;;4974728;28;20050;-70
2024/03/08 04:47:23;;;;;;;22.38;14.52;;;0.70;99.90;;;;;;4976075;28;20047;-70
2024/03/08 04:49:50;;;;;;;27.27;19.70;;;0.70;99.90;;;;;;4975887;28;20392;-70
2024/03/08 04:52:17;;;;;;;29.70;17.38;;;0.60;99.90;;;;;;4976337;28;20043;-70
2024/03/08 04:54:44;;;;;;;25.65;15.85;;;0.60;99.90;;;;;;4976084;28;20054;-70
2024/03/08 04:57:11;;;;;;;24.63;16.00;;;0.60;99.90;;;;;;4975727;28;20054;-70
2024/03/08 04:59:38;;;;;;;30.65;15.73;;;0.70;99.90;;;;;;4975937;28;20089;-70
2024/03/08 05:02:07;;;;;;;26.38;15.80;;;0.70;99.90;;;;;;4990600;28;20047;-70
2024/03/08 05:04:34;;;;;;;22.55;14.25;;;0.60;99.90;;;;;;5006975;28;20057;-70
2024/03/08 05:07:01;;;;;;;26.10;13.75;;;0.70;99.90;;;;;;4974377;28;20089;-70
2024/03/08 05:09:29;;;;;;;29.35;15.88;;;0.70;99.90;;;;;;4974649;28;20046;-70
2024/03/08 05:11:58;;;;;;;27.15;16.42;;;0.60;99.90;;;;;;4975411;28;20034;-70
2024/03/08 05:14:25;;;;;;;24.15;14.98;;;0.60;99.90;;;;;;4974689;28;20043;-70
2024/03/08 05:16:52;;;;;;;28.50;16.67;;;0.60;99.90;;;;;;4975319;28;20053;-70
2024/03/08 05:19:20;;;;;;;21.52;13.93;;;0.60;99.90;;;;;;4990388;28;20515;-70
2024/03/08 05:21:49;;;;;;;17.50;13.18;;;0.60;99.90;;;;;;4975778;28;20403;-70
2024/03/08 05:24:17;;;;;;;25.25;15.52;;;0.60;99.90;;;;;;4990195;28;20128;-70
2024/03/08 05:26:45;;;;;;;22.48;13.07;;;0.60;99.90;;;;;;4975308;28;20054;-70
2024/03/08 05:29:13;;;;;;;29.00;18.35;;;0.60;99.90;;;;;;4989938;28;20404;-70
2024/03/08 05:31:52;;;;;;;23.02;14.57;;;0.60;99.90;;;;;;4974209;28;20042;-70
2024/03/08 05:34:21;;;;;;;22.98;12.43;;;0.60;99.90;;;;;;4990267;28;20058;-70
2024/03/08 05:36:53;;;;;;;24.55;12.60;;;0.60;99.90;;;;;;4974256;28;20051;-70
2024/03/08 05:39:21;;;;;;;23.45;14.70;;;0.60;99.90;;;;;;4990423;28;20051;-70
2024/03/08 05:41:48;;;;;;;30.05;20.15;;;0.60;99.90;;;;;;4975153;28;20401;-69
2024/03/08 05:44:18;;;;;;;27.45;14.95;;;0.60;99.90;;;;;;5005829;28;20042;-70
2024/03/08 05:46:46;;;;;;;24.90;15.88;;;0.50;99.90;;;;;;4974209;28;20416;-70
2024/03/08 05:49:14;;;;;;;25.38;17.30;;;0.50;99.90;;;;;;4989612;28;20373;-70
2024/03/08 05:51:41;;;;;;;27.38;15.23;;;0.50;99.90;;;;;;4989884;28;20051;-70
2024/03/08 05:54:10;;;;;;;26.80;13.10;;;0.50;99.90;;;;;;4989247;28;20051;-70
2024/03/08 05:56:40;;;;;;;29.23;14.32;;;0.50;99.90;;;;;;4975045;28;20047;-70
2024/03/08 05:59:08;;;;;;;23.25;15.80;;;0.40;99.90;;;;;;4973582;28;20468;-70
2024/03/08 06:01:36;;;;;;;23.10;13.95;;;0.50;99.90;;;;;;4972154;28;20047;-70
2024/03/08 06:04:04;;;;;;;20.85;12.73;;;0.40;99.90;;;;;;4989058;28;20054;-70
2024/03/08 06:06:31;;;;;;;19.80;13.10;;;0.40;99.90;;;;;;4989666;28;20050;-70
2024/03/08 06:09:08;;;;;;;24.90;14.77;;;0.50;99.90;;;;;;4989369;28;20046;-70
2024/03/08 06:11:37;;;;;;;27.08;15.23;;;0.40;99.90;;;;;;4974426;28;20489;-70
2024/03/08 06:14:05;;;;;;;24.38;14.15;;;0.40;99.90;;;;;;5004861;28;20047;-70
2024/03/08 06:16:33;;;;;;;24.40;15.45;;;0.40;99.90;;;;;;4989360;28;20035;-70
2024/03/08 06:19:02;;;;;;;25.88;15.70;;;0.40;99.90;;;;;;4974474;28;20149;-70
2024/03/08 06:21:29;;;;;;;20.00;12.40;;;0.50;99.90;;;;;;4989453;28;20053;-70
2024/03/08 06:23:57;;;;;;;24.23;15.70;;;0.50;99.90;;;;;;5005532;28;20047;-70
2024/03/08 06:26:25;;;;;;;26.42;14.60;;;0.50;99.90;;;;;;5005303;28;20058;-71
2024/03/08 06:28:56;;;;;;;24.67;15.43;;;0.50;99.90;;;;;;4989067;28;20563;-70
2024/03/08 06:31:23;;;;;;;22.50;14.13;;;0.50;99.90;;;;;;4989143;28;20043;-70
2024/03/08 06:33:50;;;;;;;25.70;15.57;;;0.50;99.90;;;;;;4974165;28;20070;-70
2024/03/08 06:36:24;;;;;;;23.52;14.80;;;0.60;99.90;;;;;;4989067;28;20043;-70
2024/03/08 06:38:51;;;;;;;25.30;14.45;;;0.60;99.90;;;;;;5005398;28;20042;-70
2024/03/08 06:41:19;;;;;;;31.40;16.40;;;0.60;99.90;;;;;;4988501;28;20069;-70
2024/03/08 06:43:48;;;;;;;22.85;14.13;;;0.60;99.90;;;;;;5005260;28;20043;-70
2024/03/08 06:46:15;;;;;;;35.20;16.95;;;0.70;99.90;;;;;;5005385;28;20050;-70
2024/03/08 06:48:42;;;;;;;21.95;14.18;;;0.70;99.90;;;;;;4989078;28;20045;-70
2024/03/08 06:51:11;;;;;;;21.85;15.45;;;0.80;99.90;;;;;;4988669;28;20504;-70
2024/03/08 06:53:38;;;;;;;22.65;14.95;;;0.80;99.90;;;;;;4989113;28;20043;-70
2024/03/08 06:56:07;;;;;;;22.80;14.23;;;0.80;99.90;;;;;;4973872;28;20041;-71
2024/03/08 06:58:34;;;;;;;21.75;11.75;;;0.90;99.90;;;;;;4973819;28;20055;-70
2024/03/08 07:01:03;;;;;;;24.40;15.55;;;1.00;99.90;;;;;;4972563;28;20496;-71
2024/03/08 07:03:32;;;;;;;23.00;13.23;;;1.00;99.90;;;;;;4973932;28;20039;-71
2024/03/08 07:05:59;;;;;;;17.55;11.32;;;1.10;99.90;;;;;;4988519;28;20051;-70
2024/03/08 07:08:29;;;;;;;24.98;17.10;;;1.20;99.90;;;;;;4973351;28;20042;-70
2024/03/08 07:10:58;;;;;;;23.63;18.08;;;1.20;99.90;;;;;;4988373;28;20416;-70
2024/03/08 07:13:26;;;;;;;26.85;17.08;;;1.30;99.90;;;;;;5004442;28;20043;-70
2024/03/08 07:15:53;;;;;;;21.30;12.40;;;1.40;99.90;;;;;;5004771;28;20046;-70
2024/03/08 07:18:21;;;;;;;20.85;15.80;;;1.50;99.90;;;;;;4988235;28;20385;-71
2024/03/08 07:20:49;;;;;;;23.80;12.60;;;1.50;99.90;;;;;;5004420;28;20101;-70
2024/03/08 07:26:02;;;;;;;22.73;11.63;;;1.80;99.90;;;;;;4973673;28;20165;-70
2024/03/08 07:28:30;;;;;;;22.58;14.25;;;2.20;99.90;;;;;;5004540;28;20488;-70
2024/03/08 07:33:44;;;;;;;14.68;10.77;;;3.10;99.90;;;;;;4973532;28;20043;-70
2024/03/08 07:36:11;;;;;;;18.90;13.38;;;3.60;99.90;;;;;;5004646;28;20049;-70
2024/03/08 07:38:38;;;;;;;21.30;13.90;;;4.10;99.90;;;;;;4988246;28;20485;-70
2024/03/08 07:41:05;;;;;;;25.23;15.75;;;4.40;99.90;;;;;;5004401;28;20058;-70
2024/03/08 07:43:32;;;;;;;29.50;16.88;;;4.80;99.90;;;;;;4988072;28;20047;-71
2024/03/08 07:46:00;;;;;;;22.27;14.05;;;5.10;99.90;;;;;;4973354;28;20050;-70
2024/03/08 07:48:27;;;;;;;25.38;14.10;;;5.50;99.90;;;;;;4973040;28;20047;-70
2024/03/08 07:50:54;;;;;;;21.70;16.15;;;5.80;99.90;;;;;;4988207;28;20125;-70
2024/03/08 07:53:21;;;;;;;21.25;13.85;;;6.10;99.90;;;;;;4987990;28;20074;-70
2024/03/08 07:55:48;;;;;;;26.63;16.92;;;6.30;99.90;;;;;;5004376;28;20370;-70
2024/03/08 07:58:17;;;;;;;26.88;15.45;;;6.50;99.90;;;;;;4988148;28;20051;-70
2024/03/08 08:00:44;;;;;;;19.80;12.70;;;6.80;99.90;;;;;;5003965;28;20038;-70
2024/03/08 08:03:12;;;;;;;19.30;12.63;;;7.00;99.90;;;;;;4973090;28;20042;-71
2024/03/08 08:05:39;;;;;;;23.88;14.35;;;7.10;99.60;;;;;;5004047;28;20065;-70
2024/03/08 08:08:10;;;;;;;18.75;12.63;;;7.20;99.70;;;;;;5004184;28;20035;-71
2024/03/08 08:10:38;;;;;;;19.17;12.35;;;7.30;99.00;;;;;;4987783;28;20039;-70
2024/03/08 08:13:05;;;;;;;24.80;15.20;;;7.30;98.10;;;;;;5004085;28;20544;-70
2024/03/08 08:15:35;;;;;;;24.45;17.75;;;7.40;98.00;;;;;;4972890;28;20493;-70
2024/03/08 08:18:05;;;;;;;16.33;9.82;;;7.40;97.20;;;;;;4976525;28;20061;-70
2024/03/08 08:20:32;;;;;;;23.70;16.38;;;7.50;96.80;;;;;;4991307;28;20477;-71
2024/03/08 08:22:59;;;;;;;21.40;15.00;;;7.70;96.90;;;;;;5007526;28;20403;-71
2024/03/08 08:25:27;;;;;;;24.73;16.08;;;7.80;96.20;;;;;;5007492;28;20054;-71
2024/03/08 08:27:54;;;;;;;20.85;15.30;;;8.20;96.70;;;;;;4976576;28;20039;-71
2024/03/08 08:30:21;;;;;;;28.02;17.70;;;8.60;95.60;;;;;;4976367;28;20449;-71
2024/03/08 08:32:48;;;;;;;21.13;15.93;;;8.90;94.80;;;;;;4976338;28;20420;-70
2024/03/08 08:35:16;;;;;;;24.10;15.70;;;9.10;94.00;;;;;;4976475;28;20122;-70
2024/03/08 08:37:44;;;;;;;24.70;15.48;;;9.10;93.30;;;;;;5006982;28;20050;-70
2024/03/08 08:40:14;;;;;;;24.85;16.10;;;9.20;93.10;;;;;;4976166;28;20078;-70
2024/03/08 08:42:42;;;;;;;22.10;15.82;;;9.30;92.80;;;;;;4991113;28;20378;-71
2024/03/08 08:45:10;;;;;;;18.80;13.40;;;9.50;92.30;;;;;;5007549;28;20521;-71
2024/03/08 08:47:42;;;;;;;22.60;14.65;;;9.50;91.50;;;;;;4991101;28;20051;-71
2024/03/08 08:50:11;;;;;;;18.95;13.88;;;9.30;91.00;;;;;;5007462;28;20078;-71
2024/03/08 08:52:39;;;;;;;21.00;15.15;;;9.30;90.90;;;;;;4974536;28;20050;-71
2024/03/08 08:55:07;;;;;;;22.98;14.25;;;9.30;90.40;;;;;;4991089;28;20047;-71
2024/03/08 08:57:35;;;;;;;23.45;15.98;;;9.30;90.50;;;;;;4975974;28;20579;-71
2024/03/08 09:00:07;;;;;;;23.38;16.73;;;9.30;89.90;;;;;;4975855;28;20046;-71
2024/03/08 09:02:34;;;;;;;20.70;14.02;;;9.40;89.90;;;;;;4975677;28;20043;-71
2024/03/08 09:05:01;;;;;;;21.63;15.45;;;9.40;89.00;;;;;;4990677;28;20473;-70
2024/03/08 09:07:29;;;;;;;22.67;16.75;;;9.40;88.10;;;;;;5006704;28;20488;-70
2024/03/08 09:09:58;;;;;;;28.63;22.67;;;9.40;88.30;;;;;;5006791;28;20042;-71
2024/03/08 09:12:25;;;;;;;21.33;15.95;;;9.30;85.10;;;;;;4975623;28;20492;-71
2024/03/08 09:14:52;;;;;;;19.00;15.63;;;9.30;86.50;;;;;;4990292;28;20046;-70
2024/03/08 09:17:20;;;;;;;23.08;16.30;;;9.30;86.60;;;;;;4975618;28;20043;-71
2024/03/08 09:19:47;;;;;;;24.45;17.77;;;9.30;86.90;;;;;;4975332;28;20106;-70
2024/03/08 09:22:18;;;;;;;25.15;17.80;;;9.40;87.10;;;;;;4990070;28;20047;-71
2024/03/08 09:24:45;;;;;;;31.25;26.15;;;9.60;85.30;;;;;;4975499;28;20042;-70
2024/03/08 09:27:13;;;;;;;25.60;17.95;;;9.40;82.60;;;;;;5006265;28;20053;-70
2024/03/08 09:29:40;;;;;;;25.80;17.67;;;9.00;85.60;;;;;;5005360;28;20039;-71
2024/03/08 09:32:08;;;;;;;25.33;17.83;;;9.30;86.20;;;;;;4990262;28;20050;-70
2024/03/08 09:34:35;;;;;;;22.80;16.10;;;9.80;86.40;;;;;;4990268;28;20246;-70
2024/03/08 09:37:04;;;;;;;23.95;15.82;;;10.30;85.40;;;;;;4990176;28;20058;-70
2024/03/08 09:39:33;;;;;;;23.25;20.25;;;10.50;82.90;;;;;;5006387;28;20057;-71
2024/03/08 09:42:05;;;;;;;20.50;17.60;;;10.40;80.20;;;;;;4975094;28;20058;-70
2024/03/08 09:44:33;;;;;;;25.50;19.17;;;10.20;82.40;;;;;;4975092;28;20515;-70
2024/03/08 09:47:02;;;;;;;25.00;16.25;;;9.60;81.90;;;;;;4989934;28;20523;-70
2024/03/08 09:49:30;;;;;;;26.27;21.48;;;9.60;83.50;;;;;;4989966;28;20053;-70
2024/03/08 09:51:57;;;;;;;19.20;13.52;;;9.80;81.60;;;;;;5005631;28;20041;-70
2024/03/08 09:54:26;;;;;;;25.58;20.52;;;10.00;82.70;;;;;;4989767;28;20460;-70
2024/03/08 09:56:53;;;;;;;22.45;18.15;;;10.40;82.40;;;;;;5005331;28;20572;-70
2024/03/08 10:01:51;;;;;;;22.95;14.73;;;11.10;81.00;;;;;;4987700;28;20089;-70
2024/03/08 10:04:20;;;;;;;27.77;19.08;;;11.20;80.30;;;;;;4974515;28;20050;-70
2024/03/08 10:06:47;;;;;;;30.95;25.58;;;11.40;80.70;;;;;;4988459;28;20121;-70
2024/03/08 10:09:15;;;;;;;21.20;15.68;;;11.50;77.10;;;;;;4989480;28;20039;-70
2024/03/08 10:11:43;;;;;;;20.35;16.98;;;11.40;77.60;;;;;;4989322;28;20492;-70
2024/03/08 10:14:10;;;;;;;26.52;17.60;;;11.40;77.40;;;;;;4973232;28;20043;-70
2024/03/08 10:16:41;;;;;;;25.92;19.08;;;11.50;78.90;;;;;;4973312;28;20054;-70
2024/03/08 10:19:09;;;;;;;23.15;15.88;;;11.80;78.90;;;;;;4973200;28;20054;-70
2024/03/08 10:21:47;;;;;;;23.77;16.17;;;11.90;75.70;;;;;;4974412;28;20050;-70
2024/03/08 10:24:14;;;;;;;24.25;18.50;;;11.60;77.40;;;;;;4989233;28;20062;-70
2024/03/08 10:26:43;;;;;;;28.25;24.17;;;11.50;76.30;;;;;;4989229;28;20101;-70
2024/03/08 10:29:15;;;;;;;25.20;17.98;;;10.90;76.40;;;;;;4989031;28;20054;-70
2024/03/08 10:31:45;;;;;;;27.15;18.63;;;10.70;78.50;;;;;;5005191;28;20065;-70
2024/03/08 10:34:12;;;;;;;22.25;17.60;;;10.90;77.90;;;;;;4989249;28;20547;-70
2024/03/08 10:36:41;;;;;;;28.50;20.92;;;11.10;79.00;;;;;;4989064;28;20444;-71
2024/03/08 10:39:17;;;;;;;24.30;15.68;;;11.20;77.10;;;;;;4973717;28;20053;-70
2024/03/08 10:41:47;;;;;;;29.63;26.58;;;11.50;77.10;;;;;;4988686;28;20059;-71
2024/03/08 10:44:30;;;;;;;23.30;17.48;;;11.60;75.10;;;;;;4972986;28;20054;-70
2024/03/08 10:47:05;;;;;;;29.13;21.60;;;11.70;76.20;;;;;;4988853;28;20452;-71
2024/03/08 10:49:38;;;;;;;23.70;17.52;;;11.90;76.70;;;;;;4974081;28;20428;-70
2024/03/08 10:52:09;;;;;;;27.95;17.20;;;12.00;75.80;;;;;;4988659;28;20492;-70
2024/03/08 10:54:40;;;;;;;22.77;16.80;;;12.20;76.40;;;;;;4972934;28;20057;-70
2024/03/08 10:57:13;;;;;;;19.45;14.40;;;12.60;76.00;;;;;;4973438;28;20043;-71
2024/03/08 10:59:42;;;;;;;27.38;21.58;;;12.90;75.00;;;;;;4973729;28;20170;-70
2024/03/08 11:02:12;;;;;;;23.08;15.43;;;13.00;72.80;;;;;;4988700;28;20050;-70
2024/03/08 11:04:45;;;;;;;30.23;21.00;;;13.00;73.70;;;;;;4972536;28;20484;-70
2024/03/08 11:07:17;;;;;;;28.95;21.45;;;12.90;73.00;;;;;;4988656;28;20047;-70
2024/03/08 11:09:46;;;;;;;26.00;18.25;;;13.10;73.10;;;;;;4973696;28;20476;-70
2024/03/08 11:12:22;;;;;;;24.83;17.40;;;13.00;74.20;;;;;;4973653;28;20122;-70
2024/03/08 11:14:50;;;;;;;23.55;21.00;;;13.30;74.50;;;;;;4973492;28;20174;-71
2024/03/08 11:17:33;;;;;;;29.65;26.50;;;13.60;71.40;;;;;;4973547;28;20067;-70
2024/03/08 11:20:01;;;;;;;26.10;20.70;;;13.50;70.50;;;;;;4973428;28;20047;-70
2024/03/08 11:22:32;;;;;;;23.02;17.08;;;13.20;71.10;;;;;;4988696;28;20078;-70
2024/03/08 11:25:09;;;;;;;;;;;13.20;72.20;;;;;;4973887;28;20057;-70
2024/03/08 11:27:37;;;;;;;24.02;16.73;;;13.10;71.50;;;;;;5004834;28;20362;-70
2024/03/08 11:30:11;;;;;;;24.23;20.30;;;13.00;72.60;;;;;;4973531;28;20444;-70
2024/03/08 11:32:46;;;;;;;26.45;19.85;;;13.00;72.50;;;;;;4973602;28;20049;-71
2024/03/08 11:35:22;;;;;;;25.73;19.00;;;13.30;73.00;;;;;;4972688;28;20507;-70
2024/03/08 11:37:50;;;;;;;27.85;20.23;;;13.30;72.00;;;;;;4986102;28;20046;-70
2024/03/08 11:40:19;;;;;;;25.05;17.65;;;13.40;72.10;;;;;;4985991;28;20146;-71
2024/03/08 11:42:48;;;;;;;22.45;16.77;;;13.50;71.30;;;;;;4988331;28;20105;-70
2024/03/08 11:45:17;;;;;;;25.17;20.50;;;13.50;71.00;;;;;;4988148;28;20153;-71
2024/03/08 11:47:47;;;;;;;25.65;17.63;;;13.20;70.80;;;;;;4988245;28;20051;-70
2024/03/08 11:50:15;;;;;;;23.00;17.33;;;13.00;72.00;;;;;;4972445;28;20126;-71
2024/03/08 11:52:44;;;;;;;21.17;16.88;;;13.20;72.00;;;;;;4976447;28;20125;-70
2024/03/08 11:55:12;;;;;;;23.42;16.42;;;13.40;71.80;;;;;;4976918;28;20118;-70
2024/03/08 11:57:40;;;;;;;22.15;15.60;;;13.60;71.70;;;;;;4977018;28;20047;-70
2024/03/08 12:00:22;;;;;;;22.23;17.17;;;13.80;71.30;;;;;;5008275;28;20396;-70
2024/03/08 12:03:03;;;;;;;23.27;16.17;;;13.70;70.40;;;;;;4991951;28;20062;-70
2024/03/08 12:05:31;;;;;;;25.33;17.77;;;13.60;70.40;;;;;;4976991;28;20102;-70
2024/03/08 12:07:58;;;;;;;24.70;16.85;;;13.80;70.90;;;;;;4991624;28;20127;-71
2024/03/08 12:10:27;;;;;;;21.33;18.13;;;13.90;70.90;;;;;;4976794;28;20046;-70
2024/03/08 12:12:59;;;;;;;22.08;15.30;;;14.00;70.20;;;;;;4976852;28;20046;-70
2024/03/08 12:15:28;;;;;;;25.13;15.85;;;13.90;70.70;;;;;;4976836;28;20153;-70
2024/03/08 12:17:55;;;;;;;20.23;16.48;;;14.10;71.00;;;;;;4976854;28;20384;-70
2024/03/08 12:20:29;;;;;;;24.00;15.95;;;14.30;70.70;;;;;;4991373;28;20039;-70
2024/03/08 12:22:57;;;;;;;19.33;15.20;;;14.20;69.70;;;;;;4976630;28;20075;-70
2024/03/08 12:25:31;;;;;;;25.42;18.65;;;14.20;69.40;;;;;;4976776;28;20488;-70
2024/03/08 12:28:10;;;;;;;23.38;17.65;;;14.10;70.20;;;;;;4991315;28;20047;-70
2024/03/08 12:30:47;;;;;;;24.65;19.33;;;14.30;69.90;;;;;;4976400;28;20085;-70
2024/03/08 12:33:14;;;;;;;20.40;14.95;;;14.30;68.60;;;;;;4991135;28;20058;-70
2024/03/08 12:35:49;;;;;;;24.83;19.30;;;14.00;70.30;;;;;;4976362;28;20488;-70
2024/03/08 12:38:17;;;;;;;23.70;17.83;;;13.80;69.20;;;;;;4976138;28;20412;-70
2024/03/08 12:40:44;;;;;;;23.17;15.40;;;13.90;70.80;;;;;;4991161;28;20051;-70
2024/03/08 12:43:11;;;;;;;18.67;14.88;;;13.90;70.10;;;;;;4976126;28;20121;-70
2024/03/08 12:45:39;;;;;;;19.95;15.30;;;14.10;70.00;;;;;;4976321;28;20039;-70
2024/03/08 12:48:15;;;;;;;21.63;15.60;;;14.30;69.90;;;;;;4975913;28;20051;-70
2024/03/08 12:50:47;;;;;;;23.42;20.77;;;14.40;69.30;;;;;;4975308;28;20392;-71